createdAt,value
2018-09-11T00:00:37.321Z,87.80
2018-09-11T00:03:05.427Z,88.20
2018-09-11T00:05:33.519Z,88.20
2018-09-11T00:08:08.253Z,88.00
2018-09-11T00:10:36.349Z,88.10
2018-09-11T00:13:04.436Z,88.40
2018-09-11T00:15:32.501Z,88.20
2018-09-11T00:18:00.600Z,88.10
2018-09-11T00:20:28.684Z,88.00
2018-09-11T00:22:56.757Z,88.30
2018-09-11T00:25:24.847Z,88.20
2018-09-11T00:27:52.921Z,88.30
2018-09-11T00:30:21.023Z,88.30
2018-09-11T00:32:49.108Z,88.30
2018-09-11T00:35:17.207Z,88.60
2018-09-11T00:37:45.278Z,88.40
2018-09-11T00:40:13.376Z,88.50
2018-09-11T00:42:41.464Z,88.40
2018-09-11T00:45:09.564Z,88.40
2018-09-11T00:47:37.667Z,88.70
2018-09-11T00:50:05.811Z,88.50
2018-09-11T00:52:33.923Z,88.40
2018-09-11T00:55:02.023Z,88.60
2018-09-11T00:57:30.120Z,89.30
2018-09-11T00:59:58.236Z,89.40
2018-09-11T01:02:26.347Z,89.30
2018-09-11T01:04:54.448Z,89.30
2018-09-11T01:07:22.544Z,89.50
2018-09-11T01:09:50.644Z,89.30
2018-09-11T01:12:18.729Z,89.30
2018-09-11T01:14:46.813Z,89.40
2018-09-11T01:17:15.116Z,89.70
2018-09-11T01:19:43.237Z,89.70
2018-09-11T01:22:11.336Z,90.10
2018-09-11T01:24:39.432Z,89.90
2018-09-11T01:27:07.523Z,89.90
2018-09-11T01:29:35.656Z,89.90
2018-09-11T01:32:03.753Z,90.10
2018-09-11T01:34:31.847Z,89.90
2018-09-11T01:36:59.926Z,90.20
2018-09-11T01:39:28.032Z,90.50
2018-09-11T01:41:56.128Z,90.70
2018-09-11T01:44:24.205Z,90.50
2018-09-11T01:46:52.313Z,90.70
2018-09-11T01:49:20.412Z,90.80
2018-09-11T01:51:48.495Z,90.80
2018-09-11T01:54:16.591Z,91.10
2018-09-11T01:56:44.680Z,91.30
2018-09-11T01:59:12.753Z,91.60
2018-09-11T02:01:40.844Z,91.40
2018-09-11T02:04:08.995Z,91.00
2018-09-11T02:06:37.098Z,90.90
2018-09-11T02:09:08.297Z,91.10
2018-09-11T02:11:36.420Z,91.20
2018-09-11T02:14:04.561Z,91.40
2018-09-11T02:16:32.695Z,91.70
2018-09-11T02:19:00.895Z,91.80
2018-09-11T02:21:29.026Z,91.50
2018-09-11T02:23:57.130Z,91.60
2018-09-11T02:26:25.252Z,91.30
2018-09-11T02:28:53.535Z,91.40
2018-09-11T02:31:21.687Z,91.10
2018-09-11T02:33:49.796Z,91.20
2018-09-11T02:36:17.917Z,91.20
2018-09-11T02:38:46.025Z,91.00
2018-09-11T02:41:14.151Z,91.00
2018-09-11T02:43:42.271Z,91.10
2018-09-11T02:46:10.392Z,91.20
2018-09-11T02:48:38.501Z,91.10
2018-09-11T02:51:06.625Z,91.10
2018-09-11T02:53:34.756Z,91.10
2018-09-11T02:56:02.880Z,91.40
2018-09-11T02:58:30.987Z,91.30
2018-09-11T03:00:59.113Z,91.50
2018-09-11T03:03:27.235Z,91.40
2018-09-11T03:05:55.403Z,91.70
2018-09-11T03:08:23.601Z,91.70
2018-09-11T03:10:51.709Z,91.80
2018-09-11T03:13:19.828Z,91.40
2018-09-11T03:15:47.987Z,91.40
2018-09-11T03:18:16.089Z,91.20
2018-09-11T03:20:44.209Z,91.30
2018-09-11T03:23:12.314Z,91.20
2018-09-11T03:25:40.425Z,91.10
2018-09-11T03:28:08.540Z,90.80
2018-09-11T03:30:36.663Z,90.70
2018-09-11T03:33:04.776Z,90.50
2018-09-11T03:35:32.903Z,90.50
2018-09-11T03:38:01.005Z,90.60
2018-09-11T03:40:29.128Z,90.40
2018-09-11T03:42:57.247Z,90.30
2018-09-11T03:45:25.354Z,90.20
2018-09-11T03:47:53.472Z,90.10
2018-09-11T03:50:21.596Z,90.30
2018-09-11T03:52:49.723Z,90.30
2018-09-11T03:55:17.849Z,90.40
2018-09-11T03:57:45.968Z,90.30
2018-09-11T04:00:14.108Z,90.30
2018-09-11T04:02:42.227Z,90.30
2018-09-11T04:05:10.370Z,90.40
2018-09-11T04:07:38.469Z,90.30
2018-09-11T04:10:06.759Z,90.50
2018-09-11T04:12:35.133Z,90.60
2018-09-11T04:15:03.292Z,90.50
2018-09-11T04:17:37.768Z,90.60
2018-09-11T04:20:05.988Z,90.70
2018-09-11T04:22:34.116Z,90.60
2018-09-11T04:25:02.209Z,90.70
2018-09-11T04:27:30.317Z,90.70
2018-09-11T04:29:58.454Z,90.90
2018-09-11T04:32:26.588Z,90.90
2018-09-11T04:34:54.721Z,90.90
2018-09-11T04:37:22.840Z,91.10
2018-09-11T04:39:50.950Z,91.10
2018-09-11T04:42:19.621Z,91.10
2018-09-11T04:44:48.489Z,90.80
2018-09-11T04:47:18.367Z,91.10
2018-09-11T04:49:47.359Z,90.90
2018-09-11T04:52:16.126Z,90.80
2018-09-11T04:54:44.353Z,90.80
2018-09-11T04:57:12.479Z,90.50
2018-09-11T04:59:40.613Z,90.10
2018-09-11T05:02:09.096Z,90.20
2018-09-11T05:04:37.737Z,90.00
2018-09-11T05:07:06.296Z,89.80
2018-09-11T05:09:35.066Z,89.90
2018-09-11T05:12:03.189Z,89.90
2018-09-11T05:14:31.296Z,89.70
2018-09-11T05:16:59.428Z,89.30
2018-09-11T05:19:28.444Z,89.50
2018-09-11T05:21:56.557Z,89.50
2018-09-11T05:24:25.519Z,89.70
2018-09-11T05:26:53.640Z,89.80
2018-09-11T05:29:21.741Z,89.60
2018-09-11T05:31:49.886Z,89.50
2018-09-11T05:34:17.989Z,89.90
2018-09-11T05:36:46.102Z,90.00
2018-09-11T05:39:14.215Z,90.30
2018-09-11T05:41:42.329Z,90.70
2018-09-11T05:44:10.429Z,90.90
2018-09-11T05:46:38.560Z,91.00
2018-09-11T05:49:06.658Z,90.70
2018-09-11T05:51:34.786Z,91.00
2018-09-11T05:54:02.908Z,90.90
2018-09-11T05:56:31.060Z,90.90
2018-09-11T05:58:59.180Z,90.80
2018-09-11T06:01:27.289Z,90.70
2018-09-11T06:03:55.385Z,90.70
2018-09-11T06:06:23.481Z,90.60
2018-09-11T06:08:51.549Z,90.60
2018-09-11T06:11:19.663Z,91.20
2018-09-11T06:13:47.764Z,90.60
2018-09-11T06:16:15.988Z,90.90
2018-09-11T06:18:44.047Z,91.10
2018-09-11T06:21:12.125Z,90.90
2018-09-11T06:23:40.220Z,90.80
2018-09-11T06:26:08.317Z,90.50
2018-09-11T06:28:36.411Z,90.50
2018-09-11T06:31:04.485Z,90.20
2018-09-11T06:33:32.589Z,90.10
2018-09-11T06:36:00.667Z,90.40
2018-09-11T06:38:28.749Z,90.10
2018-09-11T06:40:56.842Z,90.30
2018-09-11T06:43:24.948Z,89.90
2018-09-11T06:45:53.044Z,89.80
2018-09-11T06:48:21.113Z,90.10
2018-09-11T06:50:49.194Z,90.30
2018-09-11T06:53:17.315Z,89.80
2018-09-11T06:55:45.393Z,89.30
2018-09-11T06:58:13.495Z,89.20
2018-09-11T07:00:41.682Z,89.90
2018-09-11T07:03:09.713Z,89.90
2018-09-11T07:05:37.831Z,89.10
2018-09-11T07:08:05.941Z,89.40
2018-09-11T07:10:34.056Z,89.10
2018-09-11T07:13:02.165Z,89.20
2018-09-11T07:15:30.291Z,89.40
2018-09-11T07:17:58.389Z,88.90
2018-09-11T07:20:26.628Z,89.10
2018-09-11T07:22:54.656Z,88.20
2018-09-11T07:25:22.767Z,86.90
2018-09-11T07:27:50.899Z,86.50
2018-09-11T07:30:19.022Z,85.60
2018-09-11T07:32:47.116Z,85.70
2018-09-11T07:35:15.232Z,85.60
2018-09-11T07:37:43.350Z,85.10
2018-09-11T07:40:11.455Z,84.40
2018-09-11T07:42:39.563Z,83.50
2018-09-11T07:45:07.669Z,83.80
2018-09-11T07:47:35.803Z,82.90
2018-09-11T07:50:03.920Z,83.20
2018-09-11T07:52:32.069Z,82.90
2018-09-11T07:55:00.152Z,83.10
2018-09-11T07:57:28.278Z,83.60
2018-09-11T07:59:56.384Z,83.20
2018-09-11T08:02:24.508Z,82.70
2018-09-11T08:04:52.603Z,81.60
2018-09-11T08:07:20.879Z,81.50
2018-09-11T08:09:48.999Z,81.90
2018-09-11T08:12:17.112Z,81.90
2018-09-11T08:14:45.215Z,81.50
2018-09-11T08:17:13.323Z,80.40
2018-09-11T08:19:41.468Z,80.50
2018-09-11T08:22:09.545Z,80.80
2018-09-11T08:24:37.663Z,80.30
2018-09-11T08:27:05.772Z,80.50
2018-09-11T08:29:33.876Z,79.80
2018-09-11T08:32:01.974Z,79.10
2018-09-11T08:34:30.090Z,78.80
2018-09-11T08:37:04.800Z,77.50
2018-09-11T08:39:32.931Z,77.30
2018-09-11T08:42:01.050Z,77.60
2018-09-11T08:44:29.157Z,76.50
2018-09-11T08:46:57.276Z,76.20
2018-09-11T08:49:25.392Z,76.30
2018-09-11T08:51:53.504Z,74.90
2018-09-11T08:54:21.628Z,74.30
2018-09-11T08:56:49.740Z,74.40
2018-09-11T08:59:17.864Z,74.00
2018-09-11T09:01:46.008Z,74.10
2018-09-11T09:04:14.214Z,73.70
2018-09-11T09:06:42.366Z,73.00
2018-09-11T09:09:11.528Z,73.40
2018-09-11T09:11:39.804Z,73.10
2018-09-11T09:14:07.919Z,72.90
2018-09-11T09:16:36.283Z,72.30
2018-09-11T09:19:04.384Z,72.20
2018-09-11T09:21:32.656Z,72.30
2018-09-11T09:24:00.808Z,71.00
2018-09-11T09:26:28.900Z,71.20
2018-09-11T09:28:57.134Z,71.00
2018-09-11T09:31:25.207Z,70.40
2018-09-11T09:33:53.321Z,71.10
2018-09-11T09:36:21.435Z,70.90
2018-09-11T09:38:49.501Z,70.70
2018-09-11T09:41:17.574Z,70.80
2018-09-11T09:43:45.676Z,70.70
2018-09-11T09:46:13.743Z,70.50
2018-09-11T09:48:41.836Z,69.80
2018-09-11T09:51:09.920Z,70.30
2018-09-11T09:53:38.071Z,69.60
2018-09-11T09:56:06.167Z,69.60
2018-09-11T09:58:34.255Z,69.90
2018-09-11T10:01:07.687Z,70.20
2018-09-11T10:03:35.811Z,70.30
2018-09-11T10:06:04.217Z,70.50
2018-09-11T10:08:32.331Z,70.00
2018-09-11T10:11:00.464Z,69.10
2018-09-11T10:13:28.583Z,69.00
2018-09-11T10:15:56.728Z,68.40
2018-09-11T10:18:24.835Z,68.00
2018-09-11T10:20:52.947Z,68.40
2018-09-11T10:23:21.069Z,67.30
2018-09-11T10:25:49.170Z,68.20
2018-09-11T10:28:17.330Z,68.50
2018-09-11T10:30:45.447Z,68.40
2018-09-11T10:33:13.545Z,67.90
2018-09-11T10:35:41.672Z,67.40
2018-09-11T10:38:09.788Z,67.20
2018-09-11T10:40:37.912Z,67.60
2018-09-11T10:43:06.164Z,66.80
2018-09-11T10:45:34.278Z,67.00
2018-09-11T10:48:02.376Z,66.00
2018-09-11T10:50:30.511Z,65.40
2018-09-11T10:52:58.598Z,65.50
2018-09-11T10:55:26.719Z,65.10
2018-09-11T10:57:54.873Z,65.60
2018-09-11T11:00:22.999Z,65.80
2018-09-11T11:02:51.105Z,64.70
2018-09-11T11:05:19.224Z,63.90
2018-09-11T11:07:47.421Z,64.30
2018-09-11T11:10:15.522Z,64.60
2018-09-11T11:12:43.632Z,64.20
2018-09-11T11:15:11.747Z,64.30
2018-09-11T11:17:39.859Z,63.60
2018-09-11T11:20:08.051Z,64.40
2018-09-11T11:22:36.164Z,63.30
2018-09-11T11:25:04.276Z,62.90
2018-09-11T11:27:32.386Z,62.90
2018-09-11T11:30:00.496Z,63.70
2018-09-11T11:32:28.729Z,62.90
2018-09-11T11:34:56.864Z,63.20
2018-09-11T11:37:25.132Z,63.40
2018-09-11T11:39:53.101Z,62.60
2018-09-11T11:42:21.273Z,62.10
2018-09-11T11:44:49.335Z,61.70
2018-09-11T11:47:19.591Z,62.30
2018-09-11T11:49:48.386Z,62.70
2018-09-11T11:52:16.500Z,61.90
2018-09-11T11:54:44.614Z,61.00
2018-09-11T11:57:12.736Z,60.70
2018-09-11T11:59:40.849Z,61.50
2018-09-11T12:02:09.027Z,61.70
2018-09-11T12:04:37.073Z,61.90
2018-09-11T12:07:05.247Z,62.20
2018-09-11T12:09:33.376Z,62.40
2018-09-11T12:12:01.468Z,62.40
2018-09-11T12:14:29.593Z,61.50
2018-09-11T12:16:57.792Z,61.10
2018-09-11T12:19:25.812Z,60.60
2018-09-11T12:21:53.921Z,60.20
2018-09-11T12:24:22.048Z,60.20
2018-09-11T12:26:50.238Z,60.30
2018-09-11T12:29:18.308Z,60.30
2018-09-11T12:31:46.392Z,59.70
2018-09-11T12:34:14.483Z,60.10
2018-09-11T12:36:42.578Z,60.40
2018-09-11T12:39:13.924Z,59.70
2018-09-11T12:41:42.000Z,60.90
2018-09-11T12:44:10.084Z,60.30
2018-09-11T12:46:38.498Z,59.30
2018-09-11T12:49:06.263Z,58.40
2018-09-11T12:51:34.565Z,58.20
2018-09-11T13:01:01.460Z,58.60
2018-09-11T13:03:29.552Z,59.30
2018-09-11T13:05:57.699Z,59.10
2018-09-11T13:08:25.779Z,59.00
2018-09-11T13:10:53.850Z,57.90
2018-09-11T13:13:21.937Z,58.10
2018-09-11T13:15:50.771Z,59.00
2018-09-11T13:18:18.856Z,58.10
2018-09-11T13:20:46.929Z,58.10
2018-09-11T13:23:15.051Z,57.40
2018-09-11T13:25:43.127Z,57.50
2018-09-11T13:28:11.227Z,57.20
2018-09-11T13:30:39.327Z,56.70
2018-09-11T13:33:07.414Z,56.50
2018-09-11T13:35:35.507Z,56.80
2018-09-11T13:38:03.581Z,56.70
2018-09-11T13:40:37.019Z,56.70
2018-09-11T13:43:05.108Z,57.00
2018-09-11T13:45:33.182Z,57.60
2018-09-11T13:48:01.272Z,57.50
2018-09-11T13:50:29.371Z,57.50
2018-09-11T13:52:57.512Z,57.50
2018-09-11T13:55:25.543Z,57.90
2018-09-11T13:57:53.628Z,56.90
2018-09-11T14:00:21.719Z,56.40
2018-09-11T14:02:49.803Z,56.60
2018-09-11T14:05:17.880Z,57.30
2018-09-11T14:07:45.975Z,57.00
2018-09-11T14:10:14.096Z,56.40
2018-09-11T14:12:42.212Z,54.20
2018-09-11T14:15:10.293Z,54.80
2018-09-11T14:17:38.383Z,55.10
2018-09-11T14:20:06.803Z,55.60
2018-09-11T14:22:34.885Z,56.00
2018-09-11T14:25:02.964Z,56.60
2018-09-11T14:27:31.041Z,56.00
2018-09-11T14:29:59.265Z,56.50
2018-09-11T14:32:27.367Z,56.10
2018-09-11T14:34:55.449Z,56.60
2018-09-11T14:37:23.573Z,56.10
2018-09-11T14:39:51.652Z,56.60
2018-09-11T14:43:23.168Z,57.00
2018-09-11T14:45:51.242Z,55.20
2018-09-11T14:48:19.373Z,55.70
2018-09-11T14:50:47.451Z,55.60
2018-09-11T14:53:15.549Z,55.20
2018-09-11T14:55:43.674Z,55.00
2018-09-11T14:58:11.715Z,54.80
2018-09-11T15:00:39.796Z,54.50
2018-09-11T15:03:08.152Z,55.20
2018-09-11T15:05:36.246Z,55.10
2018-09-11T15:08:04.377Z,55.30
2018-09-11T15:10:32.479Z,55.00
2018-09-11T15:13:00.595Z,55.00
2018-09-11T15:15:28.720Z,55.20
2018-09-11T15:17:56.842Z,55.30
2018-09-11T15:20:24.953Z,55.90
2018-09-11T15:22:53.089Z,55.80
2018-09-11T15:25:21.173Z,56.00
2018-09-11T15:27:49.311Z,56.20
2018-09-11T15:30:17.410Z,56.10
2018-09-11T15:32:45.539Z,55.80
2018-09-11T15:35:13.645Z,55.90
2018-09-11T15:37:41.766Z,55.70
2018-09-11T15:40:09.875Z,55.50
2018-09-11T15:42:38.006Z,55.50
2018-09-11T15:45:06.116Z,56.10
2018-09-11T15:47:34.303Z,55.30
2018-09-11T15:50:02.416Z,54.30
2018-09-11T15:52:30.521Z,54.50
2018-09-11T15:54:58.637Z,54.80
2018-09-11T15:57:26.776Z,55.20
2018-09-11T15:59:54.887Z,55.20
2018-09-11T16:02:23.212Z,55.10
2018-09-11T16:04:51.308Z,55.10
2018-09-11T16:07:19.377Z,55.20
2018-09-11T16:09:47.481Z,55.10
2018-09-11T16:12:22.019Z,55.20
2018-09-11T16:15:53.265Z,55.50
2018-09-11T16:18:21.382Z,55.70
2018-09-11T16:20:49.506Z,56.00
2018-09-11T16:23:17.627Z,56.00
2018-09-11T16:25:45.703Z,56.40
2018-09-11T16:28:13.782Z,56.60
2018-09-11T16:30:41.853Z,56.90
2018-09-11T16:33:09.972Z,56.90
2018-09-11T16:35:38.095Z,57.00
2018-09-11T16:38:06.181Z,57.00
2018-09-11T16:40:34.268Z,57.10
2018-09-11T16:43:02.371Z,57.40
2018-09-11T16:45:30.447Z,56.80
2018-09-11T16:49:01.761Z,56.80
2018-09-11T16:51:29.843Z,57.10
2018-09-11T16:53:57.988Z,57.40
2018-09-11T16:56:26.076Z,57.60
2018-09-11T16:58:54.159Z,56.80
2018-09-11T17:01:22.268Z,57.20
2018-09-11T17:03:50.365Z,57.20
2018-09-11T17:06:18.439Z,57.10
2018-09-11T17:08:46.589Z,57.50
2018-09-11T17:11:14.618Z,57.50
2018-09-11T17:13:42.708Z,57.70
2018-09-11T17:16:10.857Z,57.80
2018-09-11T17:18:38.912Z,58.10
2018-09-11T17:21:06.985Z,58.40
2018-09-11T17:23:35.080Z,58.50
2018-09-11T17:26:03.183Z,58.60
2018-09-11T17:28:31.274Z,58.90
2018-09-11T17:30:59.359Z,59.20
2018-09-11T17:33:27.454Z,59.40
2018-09-11T17:35:55.536Z,59.60
2018-09-11T17:38:23.634Z,59.70
2018-09-11T17:40:51.708Z,59.70
2018-09-11T17:43:19.842Z,59.60
2018-09-11T17:45:47.913Z,59.90
2018-09-11T17:48:16.043Z,59.90
2018-09-11T17:50:44.165Z,59.90
2018-09-11T17:53:12.467Z,59.70
2018-09-11T17:55:41.122Z,59.80
2018-09-11T17:58:11.796Z,60.30
2018-09-11T18:00:41.040Z,60.10
2018-09-11T18:03:09.176Z,60.20
2018-09-11T18:05:37.286Z,60.20
2018-09-11T18:08:05.711Z,60.20
2018-09-11T18:10:33.809Z,60.60
2018-09-11T18:13:01.915Z,60.60
2018-09-11T18:15:30.027Z,60.60
2018-09-11T18:17:58.511Z,60.90
2018-09-11T18:20:26.636Z,61.40
2018-09-11T18:22:54.748Z,61.50
2018-09-11T18:25:22.877Z,61.60
2018-09-11T18:27:50.996Z,63.20
2018-09-11T18:30:19.124Z,62.30
2018-09-11T18:32:47.339Z,63.90
2018-09-11T18:35:15.438Z,64.00
2018-09-11T18:37:43.540Z,64.40
2018-09-11T18:40:11.664Z,65.00
2018-09-11T18:42:39.968Z,64.90
2018-09-11T18:45:08.143Z,65.40
2018-09-11T18:47:36.237Z,65.90
2018-09-11T18:50:04.401Z,65.90
2018-09-11T18:52:32.512Z,65.40
2018-09-11T18:55:00.738Z,66.30
2018-09-11T18:57:29.858Z,66.20
2018-09-11T18:59:57.992Z,66.90
2018-09-11T19:02:26.087Z,66.60
2018-09-11T19:04:54.223Z,66.80
2018-09-11T19:07:22.330Z,67.40
2018-09-11T19:09:50.444Z,68.00
2018-09-11T19:12:18.985Z,67.80
2018-09-11T19:14:47.082Z,68.20
2018-09-11T19:17:15.195Z,68.00
2018-09-11T19:19:43.308Z,68.30
2018-09-11T19:22:11.475Z,68.20
2018-09-11T19:24:39.589Z,68.80
2018-09-11T19:27:08.380Z,68.50
2018-09-11T19:29:36.489Z,68.60
2018-09-11T19:32:04.885Z,68.40
2018-09-11T19:34:33.381Z,68.90
2018-09-11T19:37:02.196Z,69.20
2018-09-11T19:39:30.722Z,69.00
2018-09-11T19:41:58.931Z,69.60
2018-09-11T19:44:27.063Z,69.50
2018-09-11T19:46:55.172Z,69.60
2018-09-11T19:49:23.311Z,69.80
2018-09-11T19:51:51.445Z,70.40
2018-09-11T19:54:19.575Z,70.70
2018-09-11T19:56:54.478Z,70.90
2018-09-11T19:59:22.603Z,71.20
2018-09-11T20:01:50.715Z,71.40
2018-09-11T20:04:18.952Z,71.60
2018-09-11T20:06:47.169Z,71.90
2018-09-11T20:09:15.266Z,72.30
2018-09-11T20:11:43.394Z,72.30
2018-09-11T20:14:11.434Z,72.60
2018-09-11T20:16:39.531Z,72.60
2018-09-11T20:19:07.677Z,73.20
2018-09-11T20:21:36.066Z,73.30
2018-09-11T20:24:04.449Z,73.40
2018-09-11T20:26:32.586Z,73.60
2018-09-11T20:29:00.744Z,73.60
2018-09-11T20:31:28.837Z,73.70
2018-09-11T20:33:57.329Z,73.70
2018-09-11T20:36:25.505Z,73.80
2018-09-11T20:38:53.700Z,74.50
2018-09-11T20:41:21.826Z,74.80
2018-09-11T20:43:50.194Z,74.70
2018-09-11T20:46:18.392Z,74.30
2018-09-11T20:48:46.537Z,74.90
2018-09-11T20:51:14.646Z,75.30
2018-09-11T20:53:42.902Z,75.50
2018-09-11T20:56:10.992Z,75.70
2018-09-11T20:58:39.102Z,76.10
2018-09-11T21:01:07.408Z,76.10
2018-09-11T21:03:35.514Z,76.40
2018-09-11T21:06:03.616Z,76.40
2018-09-11T21:08:31.698Z,77.10
2018-09-11T21:11:00.160Z,77.20
2018-09-11T21:13:28.243Z,77.40
2018-09-11T21:15:56.514Z,77.70
2018-09-11T21:18:24.593Z,77.80
2018-09-11T21:20:52.688Z,78.00
2018-09-11T21:23:20.787Z,77.90
2018-09-11T21:25:48.888Z,77.80
2018-09-11T21:28:16.955Z,77.90
2018-09-11T21:30:45.380Z,77.90
2018-09-11T21:33:13.452Z,78.30
2018-09-11T21:35:41.551Z,78.40
2018-09-11T21:38:09.656Z,78.50
2018-09-11T21:40:37.764Z,78.90
2018-09-11T21:43:06.151Z,78.90
2018-09-11T21:45:34.700Z,78.90
2018-09-11T21:48:02.955Z,78.90
2018-09-11T21:50:31.069Z,79.10
2018-09-11T21:52:59.160Z,79.50
2018-09-11T21:55:27.247Z,79.50
2018-09-11T21:57:55.326Z,79.40
2018-09-11T22:00:23.428Z,79.50
2018-09-11T22:02:51.580Z,79.40
2018-09-11T22:05:19.699Z,79.50
2018-09-11T22:07:47.824Z,79.70
2018-09-11T22:10:16.028Z,79.80
2018-09-11T22:12:44.143Z,79.80
2018-09-11T22:15:12.274Z,79.70
2018-09-11T22:17:40.452Z,79.90
2018-09-11T22:20:08.579Z,80.10
2018-09-11T22:22:36.696Z,80.50
2018-09-11T22:25:05.143Z,80.50
2018-09-11T22:27:33.245Z,80.60
2018-09-11T22:30:01.366Z,80.70
2018-09-11T22:32:29.489Z,80.60
2018-09-11T22:34:57.592Z,80.70
2018-09-11T22:37:25.711Z,80.80
2018-09-11T22:39:53.831Z,80.90
2018-09-11T22:42:21.948Z,80.70
2018-09-11T22:44:50.055Z,80.90
2018-09-11T22:47:18.191Z,81.10
2018-09-11T22:49:46.298Z,81.20
2018-09-11T22:52:14.424Z,81.30
2018-09-11T22:54:42.527Z,81.40
2018-09-11T22:57:10.652Z,81.10
2018-09-11T22:59:38.780Z,81.10
2018-09-11T23:02:06.907Z,81.20
2018-09-11T23:04:35.023Z,81.20
2018-09-11T23:07:03.151Z,81.30
2018-09-11T23:09:31.251Z,81.30
2018-09-11T23:11:59.383Z,81.50
2018-09-11T23:14:27.490Z,81.80
2018-09-11T23:16:55.593Z,82.00
2018-09-11T23:19:23.708Z,82.10
2018-09-11T23:21:51.896Z,82.20
2018-09-11T23:24:19.999Z,82.10
2018-09-11T23:26:48.128Z,81.80
2018-09-11T23:29:16.255Z,82.10
2018-09-11T23:31:44.369Z,82.20
2018-09-11T23:34:12.484Z,82.30
2018-09-11T23:36:40.605Z,82.10
2018-09-11T23:39:09.328Z,82.00
2018-09-11T23:41:37.921Z,82.40
2018-09-11T23:44:06.584Z,82.50
2018-09-11T23:46:34.704Z,82.60
2018-09-11T23:49:02.818Z,82.70
2018-09-11T23:51:30.935Z,82.60
2018-09-11T23:53:59.040Z,82.90
2018-09-11T23:56:27.156Z,83.00
2018-09-11T23:58:55.282Z,83.10
